CheckWX is a tool to help pilots better visualize weather data.  It is not intended as a substitute for an official pre-flight weather briefing.

11:58:33 UTC

EBBL TAF
Kleine Brogel Air Base Airport
Kleine Brogel, Belgium
TAF EBBL 230841Z 2310/2319 08006KT 4000 BR FEW003 SCT025 TEMPO 2311/2316 6000 FEW009 SCT025 PROB40 TEMPO 2312/2316 9999 FEW009 SCT025 BECMG 2317/2319 3000 BR BKN010

Jan-23@
10:00 UTC

Jan-23 @ 10:00 UTC

Jan-23@
17:00 UTC

Jan-23 @ 17:00 UTC

TAF EBBL 230841Z 2310/2319 08006KT 4000 BR FEW003 SCT025
Wind
  • 080° at 6 KTS
Conditions
Mist
Cloud Levels
  • Few at 300' AGL
  • Scattered at 2,500' AGL

Jan-23@
11:00 UTC

Jan-23 @ 11:00 UTC

Jan-23@
16:00 UTC

Jan-23 @ 16:00 UTC

TEMPO 2311/2316 6000 FEW009 SCT025

Temporary

Temporary Changes expected for less than half the time period

Cloud Levels
  • Few at 900' AGL
  • Scattered at 2,500' AGL

Jan-23@
12:00 UTC

Jan-23 @ 12:00 UTC

Jan-23@
16:00 UTC

Jan-23 @ 16:00 UTC

PROB40 TEMPO 2312/2316 9999 FEW009 SCT025

Temporary - 40% Likelihood

Temporary - 40% Likelihood during this time.

Cloud Levels
  • Few at 900' AGL
  • Scattered at 2,500' AGL

Jan-23@
17:00 UTC

Jan-23 @ 17:00 UTC

Jan-23@
19:00 UTC

Jan-23 @ 19:00 UTC

BECMG 2317/2319 3000 BR BKN010

Becoming

Becoming Conditions expected by Thu, Jan 23, 2020 @ 19:00 UTC

Wind
  • 080° at 6 KTS
Conditions
Mist
Cloud Levels
  • Broken at 1,000' AGL